createdAt,value
2019-04-12T00:00:50.227Z,1018.85
2019-04-12T00:05:45.874Z,1018.83
2019-04-12T00:10:41.579Z,1018.84
2019-04-12T00:15:37.379Z,1018.84
2019-04-12T00:20:33.321Z,1018.82
2019-04-12T00:25:29.280Z,1018.81
2019-04-12T00:30:24.841Z,1018.79
2019-04-12T00:35:21.648Z,1018.82
2019-04-12T00:40:17.636Z,1018.88
2019-04-12T00:45:13.294Z,1018.83
2019-04-12T00:50:12.017Z,1018.69
2019-04-12T00:55:06.799Z,1018.73
2019-04-12T01:00:03.302Z,1018.87
2019-04-12T01:04:59.247Z,1018.88
2019-04-12T01:09:55.028Z,1018.77
2019-04-12T01:14:50.650Z,1018.77
2019-04-12T01:19:46.035Z,1018.82
2019-04-12T01:24:41.944Z,1018.73
2019-04-12T01:29:37.508Z,1018.76
2019-04-12T01:34:33.088Z,1018.77
2019-04-12T01:39:28.774Z,1018.77
2019-04-12T01:44:24.422Z,1018.76
2019-04-12T01:49:20.075Z,1018.85
2019-04-12T01:54:17.219Z,1018.80
2019-04-12T01:59:12.569Z,1018.74
2019-04-12T02:04:08.239Z,1018.72
2019-04-12T02:09:04.062Z,1018.79
2019-04-12T02:14:00.633Z,1018.83
2019-04-12T02:18:55.888Z,1018.75
2019-04-12T02:23:51.786Z,1018.68
2019-04-12T02:28:47.467Z,1018.79
2019-04-12T02:33:43.251Z,1018.68
2019-04-12T02:38:38.639Z,1018.70
2019-04-12T02:43:34.225Z,1018.71
2019-04-12T02:48:29.778Z,1018.79
2019-04-12T02:53:25.618Z,1018.69
2019-04-12T02:58:22.317Z,1018.72
2019-04-12T03:03:17.723Z,1018.71
2019-04-12T03:08:13.277Z,1018.77
2019-04-12T03:13:08.813Z,1018.72
2019-04-12T03:18:04.716Z,1018.70
2019-04-12T03:23:00.421Z,1018.65
2019-04-12T03:27:55.966Z,1018.73
2019-04-12T03:32:51.658Z,1018.65
2019-04-12T03:37:47.405Z,1018.80
2019-04-12T03:42:42.940Z,1018.78
2019-04-12T03:47:38.589Z,1018.74
2019-04-12T03:52:34.081Z,1018.78
2019-04-12T03:57:29.715Z,1018.68
2019-04-12T04:02:26.320Z,1018.71
2019-04-12T04:07:21.465Z,1018.59
2019-04-12T04:12:16.919Z,1018.67
2019-04-12T04:17:13.174Z,1018.73
2019-04-12T04:22:08.745Z,1018.79
2019-04-12T04:27:04.262Z,1018.73
2019-04-12T04:32:00.326Z,1018.73
2019-04-12T04:36:55.651Z,1018.80
2019-04-12T04:41:51.744Z,1018.77
2019-04-12T04:46:47.292Z,1018.83
2019-04-12T04:51:43.392Z,1018.85
2019-04-12T04:56:39.113Z,1018.80
2019-04-12T05:01:34.336Z,1018.83
2019-04-12T05:06:31.113Z,1018.78
2019-04-12T05:11:26.344Z,1018.80
2019-04-12T05:16:21.929Z,1018.81
2019-04-12T05:21:17.303Z,1018.90
2019-04-12T05:26:13.024Z,1019.03
2019-04-12T05:31:10.495Z,1019.02
2019-04-12T05:36:06.408Z,1019.12
2019-04-12T05:41:02.185Z,1019.17
2019-04-12T05:45:58.427Z,1019.18
2019-04-12T05:50:54.043Z,1019.15
2019-04-12T05:55:49.759Z,1019.15
2019-04-12T06:00:45.804Z,1019.17
2019-04-12T06:05:42.560Z,1019.24
2019-04-12T06:10:38.760Z,1019.30
2019-04-12T06:15:34.412Z,1019.32
2019-04-12T06:20:30.214Z,1019.36
2019-04-12T06:25:26.413Z,1019.41
2019-04-12T06:30:22.079Z,1019.43
2019-04-12T06:35:17.980Z,1019.47
2019-04-12T06:40:13.865Z,1019.47
2019-04-12T06:45:10.680Z,1019.54
2019-04-12T06:50:05.988Z,1019.49
2019-04-12T06:55:02.022Z,1019.48
2019-04-12T06:59:58.043Z,1019.56
2019-04-12T07:04:53.607Z,1019.47
2019-04-12T07:09:49.369Z,1019.54
2019-04-12T07:14:45.130Z,1019.40
2019-04-12T07:19:40.878Z,1019.42
2019-04-12T07:24:36.715Z,1019.35
2019-04-12T07:29:32.815Z,1019.44
2019-04-12T07:34:28.910Z,1019.34
2019-04-12T07:39:24.350Z,1019.48
2019-04-12T07:44:20.068Z,1019.45
2019-04-12T07:49:15.728Z,1019.44
2019-04-12T07:54:11.347Z,1019.54
2019-04-12T07:59:07.067Z,1019.53
2019-04-12T08:04:02.521Z,1019.60
2019-04-12T08:08:58.337Z,1019.59
2019-04-12T08:13:54.220Z,1019.55
2019-04-12T08:18:49.909Z,1019.51
2019-04-12T08:23:45.707Z,1019.66
2019-04-12T08:28:41.464Z,1019.58
2019-04-12T08:33:37.947Z,1019.61
2019-04-12T08:38:34.850Z,1019.60
2019-04-12T08:43:30.503Z,1019.52
2019-04-12T08:48:27.916Z,1019.50
2019-04-12T08:53:23.481Z,1019.38
2019-04-12T08:58:19.287Z,1019.46
2019-04-12T09:03:14.603Z,1019.29
2019-04-12T09:08:10.160Z,1019.35
2019-04-12T09:13:05.213Z,1019.45
2019-04-12T09:18:01.066Z,1019.56
2019-04-12T09:22:57.379Z,1019.49
2019-04-12T09:27:52.610Z,1019.49
2019-04-12T09:32:48.355Z,1019.40
2019-04-12T09:37:45.385Z,1019.44
2019-04-12T09:42:41.935Z,1019.42
2019-04-12T09:47:38.381Z,1019.40
2019-04-12T09:52:34.548Z,1019.40
2019-04-12T09:57:30.314Z,1019.42
2019-04-12T10:02:26.913Z,1019.34
2019-04-12T10:07:23.301Z,1019.48
2019-04-12T10:12:19.716Z,1019.35
2019-04-12T10:17:14.935Z,1019.41
2019-04-12T10:22:10.223Z,1019.36
2019-04-12T10:27:05.899Z,1019.40
2019-04-12T10:32:00.956Z,1019.50
2019-04-12T10:36:58.217Z,1019.39
2019-04-12T10:41:53.842Z,1019.45
2019-04-12T10:46:49.736Z,1019.48
2019-04-12T10:51:45.752Z,1019.38
2019-04-12T10:56:41.537Z,1019.33
2019-04-12T11:01:37.309Z,1019.35
2019-04-12T11:06:33.070Z,1019.34
2019-04-12T11:11:29.351Z,1019.23
2019-04-12T11:16:27.135Z,1019.21
2019-04-12T11:21:22.443Z,1019.20
2019-04-12T11:26:18.062Z,1019.33
2019-04-12T11:31:14.129Z,1019.25
2019-04-12T11:36:09.911Z,1019.37
2019-04-12T11:41:05.434Z,1019.30
2019-04-12T11:46:01.187Z,1019.46
2019-04-12T11:50:57.091Z,1019.39
2019-04-12T11:55:54.042Z,1019.36
2019-04-12T12:00:49.758Z,1019.29
2019-04-12T12:05:45.503Z,1019.28
2019-04-12T12:10:41.427Z,1019.22
2019-04-12T12:15:37.923Z,1019.18
2019-04-12T12:20:33.920Z,1019.21
2019-04-12T12:25:29.898Z,1019.25
2019-04-12T12:30:26.095Z,1019.14
2019-04-12T12:35:22.122Z,1019.06
2019-04-12T12:40:18.372Z,1019.09
2019-04-12T12:45:13.909Z,1019.09
2019-04-12T12:50:09.429Z,1019.16
2019-04-12T12:55:04.799Z,1019.16
2019-04-12T13:00:00.774Z,1019.11
2019-04-12T13:04:56.776Z,1019.08
2019-04-12T13:09:52.547Z,1019.15
2019-04-12T13:14:49.237Z,1019.13
2019-04-12T13:19:45.835Z,1019.02
2019-04-12T13:24:42.161Z,1019.00
2019-04-12T13:29:38.889Z,1019.05
2019-04-12T13:34:34.472Z,1018.93
2019-04-12T13:39:30.602Z,1018.82
2019-04-12T13:44:26.221Z,1018.85
2019-04-12T13:49:21.639Z,1018.84
2019-04-12T13:54:16.833Z,1018.79
2019-04-12T13:59:12.840Z,1018.77
2019-04-12T14:04:08.590Z,1018.82
2019-04-12T14:09:04.394Z,1018.75
2019-04-12T14:14:00.844Z,1018.79
2019-04-12T14:18:57.688Z,1018.78
2019-04-12T14:23:54.213Z,1018.94
2019-04-12T14:28:50.331Z,1018.78
2019-04-12T14:33:46.282Z,1018.79
2019-04-12T14:38:41.698Z,1018.81
2019-04-12T14:43:37.346Z,1018.76
2019-04-12T14:48:33.036Z,1018.81
2019-04-12T14:53:28.714Z,1018.80
2019-04-12T14:58:24.415Z,1018.82
2019-04-12T15:03:20.309Z,1018.88
2019-04-12T15:08:17.082Z,1018.85
2019-04-12T15:13:13.720Z,1018.76
2019-04-12T15:18:09.068Z,1018.72
2019-04-12T15:23:04.754Z,1018.77
2019-04-12T15:28:00.427Z,1018.72
2019-04-12T15:32:56.160Z,1018.79
2019-04-12T15:37:54.071Z,1018.89
2019-04-12T15:42:48.885Z,1018.91
2019-04-12T15:47:45.117Z,1018.89
2019-04-12T15:52:40.482Z,1018.82
2019-04-12T15:57:36.346Z,1018.69
2019-04-12T16:02:33.129Z,1018.67
2019-04-12T16:07:28.824Z,1018.75
2019-04-12T16:12:25.718Z,1018.71
2019-04-12T16:17:20.940Z,1018.74
2019-04-12T16:22:18.288Z,1018.80
2019-04-12T16:27:13.340Z,1018.85
2019-04-12T16:32:09.544Z,1018.91
2019-04-12T16:37:06.321Z,1018.90
2019-04-12T16:42:01.650Z,1018.87
2019-04-12T16:46:58.175Z,1018.82
2019-04-12T16:51:53.486Z,1018.64
2019-04-12T16:56:49.311Z,1018.76
2019-04-12T17:01:46.177Z,1018.76
2019-04-12T17:06:41.650Z,1018.81
2019-04-12T17:11:37.453Z,1018.74
2019-04-12T17:16:33.219Z,1018.75
2019-04-12T17:21:29.926Z,1018.74
2019-04-12T17:26:26.214Z,1018.86
2019-04-12T17:31:21.519Z,1018.87
2019-04-12T17:36:17.251Z,1018.92
2019-04-12T17:41:12.795Z,1018.82
2019-04-12T17:46:09.336Z,1018.86
2019-04-12T17:51:04.622Z,1018.86
2019-04-12T17:56:01.219Z,1018.81
2019-04-12T18:00:56.715Z,1018.85
2019-04-12T18:10:51.811Z,1019.00
2019-04-12T18:15:47.350Z,1019.09
2019-04-12T18:20:42.865Z,1019.22
2019-04-12T18:25:39.597Z,1019.11
2019-04-12T18:30:35.070Z,1019.16
2019-04-12T18:35:31.319Z,1019.18
2019-04-12T18:40:26.720Z,1019.21
2019-04-12T18:45:22.937Z,1019.19
2019-04-12T18:50:18.199Z,1019.16
2019-04-12T18:55:14.076Z,1019.33
2019-04-12T19:00:10.830Z,1019.22
2019-04-12T19:05:08.298Z,1019.25
2019-04-12T19:10:03.580Z,1019.31
2019-04-12T19:14:59.200Z,1019.39
2019-04-12T19:19:54.952Z,1019.43
2019-04-12T19:24:51.807Z,1019.41
2019-04-12T19:29:46.682Z,1019.49
2019-04-12T19:34:42.410Z,1019.49
2019-04-12T19:39:38.083Z,1019.53
2019-04-12T19:44:34.486Z,1019.47
2019-04-12T19:49:31.191Z,1019.48
2019-04-12T19:54:26.695Z,1019.49
2019-04-12T19:59:23.718Z,1019.51
2019-04-12T20:04:19.249Z,1019.50
2019-04-12T20:09:14.855Z,1019.46
2019-04-12T20:14:10.826Z,1019.55
2019-04-12T20:19:06.457Z,1019.47
2019-04-12T20:24:01.995Z,1019.45
2019-04-12T20:28:57.686Z,1019.44
2019-04-12T20:33:54.331Z,1019.51
2019-04-12T20:38:49.782Z,1019.48
2019-04-12T20:43:45.847Z,1019.50
2019-04-12T20:48:42.558Z,1019.57
2019-04-12T20:53:38.127Z,1019.49
2019-04-12T20:58:34.820Z,1019.46
2019-04-12T21:03:31.271Z,1019.51
2019-04-12T21:08:27.015Z,1019.49
2019-04-12T21:13:22.709Z,1019.50
2019-04-12T21:18:18.697Z,1019.54
2019-04-12T21:23:14.307Z,1019.54
2019-04-12T21:28:09.969Z,1019.58
2019-04-12T21:33:06.246Z,1019.47
2019-04-12T21:38:02.557Z,1019.65
2019-04-12T21:42:57.897Z,1019.59
2019-04-12T21:47:53.693Z,1019.71
2019-04-12T21:52:49.277Z,1019.64
2019-04-12T21:57:45.211Z,1019.71
2019-04-12T22:02:42.007Z,1019.66
2019-04-12T22:07:37.415Z,1019.67
2019-04-12T22:12:33.248Z,1019.65
2019-04-12T22:17:29.481Z,1019.68
2019-04-12T22:22:25.239Z,1019.66
2019-04-12T22:27:20.892Z,1019.67
2019-04-12T22:32:16.387Z,1019.69
2019-04-12T22:37:12.122Z,1019.67
2019-04-12T22:42:07.713Z,1019.59
2019-04-12T22:47:04.406Z,1019.51
2019-04-12T22:52:00.042Z,1019.57
2019-04-12T22:56:55.436Z,1019.53
2019-04-12T23:01:50.940Z,1019.45
2019-04-12T23:06:46.621Z,1019.55
2019-04-12T23:11:42.302Z,1019.53
2019-04-12T23:16:38.376Z,1019.50
2019-04-12T23:21:34.219Z,1019.59
2019-04-12T23:26:29.913Z,1019.54
2019-04-12T23:31:25.607Z,1019.53
2019-04-12T23:36:21.125Z,1019.55
2019-04-12T23:41:16.801Z,1019.58
2019-04-12T23:46:14.170Z,1019.60
2019-04-12T23:51:09.524Z,1019.53
2019-04-12T23:56:05.096Z,1019.54
